Hlavní strana
METAR-TAF:

METAR-TAF

Letiště :

Verona, Itálie

zeměpisná šířka: 45-23N, zeměpisná délka: 010-52E, výška: 67 m

Aktuální stav počasí

Zpráva byla vytvořena před 38 minutami, v 13:50 UTC
Jihozápadní vítr 6 kt, proměnlivý mezi jihojihozápadním a západním
Teplota 27°C
Vlhkost vzduchu 54%
Tlak 1020 hPa
Viditelnost 10 km a více
Žádná oblačnost pod 1500 m, nevyskytují se cumulonimby.

METAR: LIPX 141350Z 23006KT 200V270 CAVOK 27/17 Q1020

Čas: 16:28 (14:28 UTC)

Předpověď počasí

Zpráva byla vytvořena před 3 hodinami a 28 minutami, v 11:00 UTC
Předpověď platná od 14 v 12 UTC do 15 v 12 UTC
Západní vítr 5 kt
Viditelnost 10 km a více
Žádná oblačnost pod 1500 m, nevyskytují se cumulonimby.

TAF: LIPX 141100Z 1412/1512 26005KT CAVOK

Stav a předpovědi počasí z více než 4 000 letišť (zprávy METAR a TAF).

Červené a žluté tečky na mapě představují dostupné meteorologické stanice.

Když kurzor umístíte na tečku, zobrazí se název stanice.

Pak kliknutím zobrazíte stav a předpověď počasí.

Chcete-li změnit mapu, kliknutím na zelené tlačítko se znaménkem +mapu přiblížíte, kliknutím na zelené tlačítko se znaménkem – mapu oddálíte a kliknutím na zelené šipky přejdete na sousední mapy.


METAR-TAF: